Time;durP1;ratioP1;P1;durP2;ratioP2;P2;SDS_P1;SDS_P2;PMS_P1;PMS_P2;Temp;Humidity;BMP_temperature;BMP_pressure;BME280_temperature;BME280_humidity;BME280_pressure;Samples;Min_cycle;Max_cycle;Signal;HPM_P1;HPM_P2
2022/10/27 14:25:11;;;;;;;;;;;;;;;;;;5171101;27;13419;-70
2022/10/27 14:27:36;;;;;;;;;;;;;;;;;;5170234;27;7527;-70
2022/10/27 14:30:01;;;;;;;;;;;;;;;;;;5170225;27;7523;-70
2022/10/27 14:32:28;;;;;;;;;;;;;;;;;;5169574;27;7535;-70
2022/10/27 14:34:53;;;;;;;;;;;;;;;;;;5169437;27;8113;-72
2022/10/27 14:37:18;;;;;;;;;;;;;;;;;;5170055;27;7994;-70
2022/10/27 14:41:29;;;;;;;;;16.25;15.50;;;;;;;;5038859;28;13963;-70
2022/10/27 14:43:56;;;;;;;;;16.75;14.25;;;;;;;;5022539;28;14209;-74
2022/10/27 14:46:23;;;;;;;;;15.80;11.40;;;;;;;;5021740;28;13654;-73
2022/10/27 14:48:57;;;;;;;;;16.40;13.80;;;;;;;;5026590;28;14295;-73
2022/10/27 14:51:22;;;;;;;;;17.50;14.75;;;;;;;;5020319;28;13601;-72
2022/10/27 14:53:50;;;;;;;;;14.00;12.25;;;;;;;;5022131;28;14470;-73
2022/10/27 14:56:25;;;;;;;;;18.25;17.00;;;;;;;;5021622;28;14358;-72
2022/10/27 14:58:55;;;;;;;;;15.00;13.00;;;;;;;;5020145;28;13578;-72
2022/10/27 15:01:25;;;;;;;;;20.25;16.00;;;;;;;;5019945;28;13576;-73
2022/10/27 15:03:50;;;;;;;;;20.50;17.25;;;;;;;;5020432;28;14322;-73
2022/10/27 15:06:17;;;;;;;;;19.00;16.25;;;;;;;;5020384;28;13541;-72
2022/10/27 15:08:43;;;;;;;;;20.25;17.75;;;;;;;;5018824;28;13538;-72
2022/10/27 15:11:14;;;;;;;;;18.00;14.25;;;;;;;;5035782;28;14416;-74
2022/10/27 15:13:42;;;;;;;;;16.75;14.75;;;;;;;;5055040;28;14299;-73
2022/10/27 15:16:10;;;;;;;;;14.00;14.00;;;;;;;;5041770;28;13541;-74
2022/10/27 15:18:38;;;;;;;;;16.40;12.80;;;;;;;;5042187;28;13557;-72
2022/10/27 15:21:09;;;;;;;;;18.60;15.00;;;;;;;;5041739;28;13692;-72
2022/10/27 15:23:36;;;;;;;;;18.00;14.80;;;;;;;;5040359;28;14434;-73
2022/10/27 15:26:01;;;;;;;;;20.25;16.00;;;;;;;;5041954;28;13535;-73
2022/10/27 15:28:29;;;;;;;;;17.00;15.00;;;;;;;;5042517;28;13631;-72
2022/10/27 15:30:55;;;;;;;;;18.00;14.50;;;;;;;;5044877;28;13490;-73
2022/10/27 15:33:27;;;;;;;;;14.50;12.75;;;;;;;;5044467;28;13561;-73
2022/10/27 15:35:56;;;;;;;;;19.75;16.00;;;;;;;;5042538;28;13596;-73
2022/10/27 15:38:24;;;;;;;;;19.80;15.40;;;;;;;;5043853;28;13548;-72
2022/10/27 15:40:49;;;;;;;;;17.20;14.80;;;;;;;;5045607;28;14345;-73
2022/10/27 15:43:20;;;;;;;;;18.75;16.75;;;;;;;;5045540;28;13473;-73
2022/10/27 15:45:45;;;;;;;;;17.60;16.60;;;;;;;;5046199;28;14351;-73
2022/10/27 15:48:23;;;;;;;;;23.33;21.00;;;;;;;;5043357;28;13528;-74
2022/10/27 15:50:56;;;;;;;;;32.60;27.20;;;;;;;;5039313;28;13548;-73
2022/10/27 15:53:21;;;;;;;;;38.25;31.00;;;;;;;;5028998;28;13604;-72
2022/10/27 15:55:58;;;;;;;;;55.50;43.75;;;;;;;;5028618;28;13575;-73
2022/10/27 15:58:34;;;;;;;;;49.00;40.00;;;;;;;;5028470;28;13553;-72
2022/10/27 16:01:10;;;;;;;;;50.75;42.75;;;;;;;;5028100;28;13559;-73
2022/10/27 16:03:43;;;;;;;;;40.60;34.60;;;;;;;;5027963;28;14500;-72
2022/10/27 16:06:25;;;;;;;;;32.20;27.60;;;;;;;;5027545;28;13558;-73
2022/10/27 16:08:51;;;;;;;;;22.50;22.50;;;;;;;;5029220;28;13586;-75
2022/10/27 16:11:17;;;;;;;;;25.00;23.80;;;;;;;;5028292;28;13529;-74
2022/10/27 16:13:44;;;;;;;;;31.50;23.00;;;;;;;;5028250;28;13567;-72
2022/10/27 16:16:10;;;;;;;;;33.50;25.50;;;;;;;;5027638;28;13749;-72
2022/10/27 16:18:35;;;;;;;;;31.75;29.75;;;;;;;;5042821;28;13774;-73
2022/10/27 16:21:01;;;;;;;;;28.00;26.00;;;;;;;;5042474;28;13600;-73
2022/10/27 16:23:26;;;;;;;;;25.50;22.50;;;;;;;;5027595;28;13565;-73
2022/10/27 16:25:52;;;;;;;;;27.00;22.33;;;;;;;;5027520;28;13615;-73
2022/10/27 16:28:26;;;;;;;;;27.25;23.75;;;;;;;;5027538;28;13541;-72
2022/10/27 16:30:51;;;;;;;;;27.00;22.25;;;;;;;;5027431;28;14365;-73
2022/10/27 16:33:19;;;;;;;;;22.75;20.75;;;;;;;;5027247;28;13545;-73
2022/10/27 16:35:44;;;;;;;;;23.80;21.40;;;;;;;;5025696;28;13646;-72
2022/10/27 16:38:10;;;;;;;;;19.00;19.00;;;;;;;;5026995;28;13541;-74
2022/10/27 16:40:36;;;;;;;;;23.00;22.00;;;;;;;;5026770;28;13550;-72
2022/10/27 16:43:02;;;;;;;;;20.50;19.50;;;;;;;;5026608;28;14230;-73
2022/10/27 16:45:27;;;;;;;;;25.50;20.25;;;;;;;;5027221;28;13535;-70
2022/10/27 16:47:52;;;;;;;;;33.25;28.75;;;;;;;;5042356;28;14261;-74
2022/10/27 16:50:18;;;;;;;;;38.67;33.67;;;;;;;;5027163;28;13853;-68
2022/10/27 16:52:43;;;;;;;;;31.50;29.75;;;;;;;;5024249;28;14338;-70
2022/10/27 16:55:10;;;;;;;;;29.75;26.75;;;;;;;;5025171;28;13603;-69
2022/10/27 16:57:36;;;;;;;;;38.80;33.20;;;;;;;;5020524;28;13695;-69
2022/10/27 17:00:02;;;;;;;;;42.00;35.60;;;;;;;;5024677;28;13597;-69
2022/10/27 17:02:27;;;;;;;;;42.75;36.75;;;;;;;;5023915;28;13616;-69
2022/10/27 17:04:52;;;;;;;;;40.33;33.00;;;;;;;;5024216;28;13639;-68
2022/10/27 17:07:17;;;;;;;;;38.33;33.33;;;;;;;;5024603;28;14334;-70
2022/10/27 17:09:43;;;;;;;;;35.00;32.00;;;;;;;;5025213;28;13706;-71
2022/10/27 17:12:08;;;;;;;;;30.25;28.25;;;;;;;;5026185;28;13608;-72
2022/10/27 17:14:33;;;;;;;;;33.75;32.00;;;;;;;;5026459;28;13747;-73
2022/10/27 17:16:59;;;;;;;;;35.00;30.00;;;;;;;;5026083;28;13557;-72
2022/10/27 17:19:25;;;;;;;;;32.75;31.25;;;;;;;;5026189;28;13617;-72
2022/10/27 17:21:50;;;;;;;;;20.20;18.80;;;;;;;;5024690;28;13710;-72
2022/10/27 17:24:15;;;;;;;;;23.25;22.25;;;;;;;;4971625;28;13621;-72
2022/10/27 17:26:41;;;;;;;;;28.00;25.00;;;;;;;;5011183;28;14490;-73
2022/10/27 17:29:06;;;;;;;;;34.33;30.00;;;;;;;;5025659;28;13612;-73
2022/10/27 17:31:31;;;;;;;;;27.75;25.25;;;;;;;;5025828;28;13836;-72
2022/10/27 17:33:58;;;;;;;;;29.50;27.50;;;;;;;;5025428;28;15014;-72
2022/10/27 17:36:24;;;;;;;;;26.40;23.80;;;;;;;;5019887;28;13618;-71
2022/10/27 17:38:50;;;;;;;;;29.25;24.25;;;;;;;;5023806;28;13704;-70
2022/10/27 17:41:15;;;;;;;;;32.33;29.00;;;;;;;;5023707;28;14528;-71
2022/10/27 17:43:40;;;;;;;;;29.50;27.25;;;;;;;;5023678;28;13596;-70
2022/10/27 17:46:08;;;;;;;;;30.00;27.25;;;;;;;;5022780;28;13930;-72
2022/10/27 17:48:34;;;;;;;;;33.80;30.60;;;;;;;;5024592;28;13561;-71
2022/10/27 17:51:01;;;;;;;;;31.25;28.00;;;;;;;;5025477;28;13571;-71
2022/10/27 17:53:27;;;;;;;;;33.80;29.20;;;;;;;;5025743;28;13577;-72
2022/10/27 17:55:55;;;;;;;;;30.00;28.25;;;;;;;;5024455;28;13729;-69
2022/10/27 17:58:20;;;;;;;;;31.20;29.80;;;;;;;;5024794;28;13612;-70
2022/10/27 18:00:45;;;;;;;;;35.75;32.25;;;;;;;;5025384;28;13727;-70
2022/10/27 18:03:11;;;;;;;;;31.33;28.33;;;;;;;;5025391;28;13641;-69
2022/10/27 18:05:36;;;;;;;;;32.67;28.67;;;;;;;;5025610;28;13606;-69
2022/10/27 18:08:01;;;;;;;;;30.00;28.00;;;;;;;;5025138;28;13612;-69
2022/10/27 18:10:26;;;;;;;;;35.75;29.75;;;;;;;;5025661;28;13601;-69
2022/10/27 18:12:52;;;;;;;;;37.67;33.00;;;;;;;;5024945;28;13747;-70
2022/10/27 18:15:17;;;;;;;;;37.50;34.25;;;;;;;;5024916;28;13709;-69
2022/10/27 18:17:46;;;;;;;;;34.33;31.67;;;;;;;;5024902;28;13617;-69
2022/10/27 18:20:12;;;;;;;;;42.60;36.00;;;;;;;;5018365;28;13658;-70
2022/10/27 18:22:37;;;;;;;;;42.50;35.50;;;;;;;;5015037;28;13575;-69
2022/10/27 18:25:04;;;;;;;;;36.00;30.00;;;;;;;;5013397;28;13616;-70
2022/10/27 18:27:30;;;;;;;;;39.00;32.75;;;;;;;;5014528;28;14474;-72
2022/10/27 18:29:55;;;;;;;;;33.33;30.00;;;;;;;;5012968;28;13646;-71
2022/10/27 18:32:21;;;;;;;;;37.25;31.00;;;;;;;;5014017;28;13586;-72
2022/10/27 18:34:46;;;;;;;;;33.80;31.40;;;;;;;;5014473;28;13641;-71
2022/10/27 18:37:11;;;;;;;;;37.75;31.25;;;;;;;;5011463;28;13742;-73
2022/10/27 18:39:37;;;;;;;;;36.33;32.33;;;;;;;;5013411;28;13666;-74
2022/10/27 18:42:02;;;;;;;;;39.50;32.75;;;;;;;;5014476;28;13742;-74
2022/10/27 18:44:28;;;;;;;;;41.25;32.25;;;;;;;;5021923;28;14772;-73
2022/10/27 18:46:53;;;;;;;;;38.50;31.75;;;;;;;;5024946;28;14173;-72
2022/10/27 18:49:18;;;;;;;;;35.00;31.00;;;;;;;;5024845;28;13740;-74
2022/10/27 18:51:44;;;;;;;;;32.00;30.33;;;;;;;;5022954;28;13633;-72
2022/10/27 18:54:12;;;;;;;;;37.67;32.33;;;;;;;;5013762;28;13621;-72
2022/10/27 18:56:37;;;;;;;;;36.40;31.40;;;;;;;;5006193;28;13669;-71
2022/10/27 18:59:05;;;;;;;;;38.00;34.75;;;;;;;;5017855;28;13670;-73
2022/10/27 19:01:31;;;;;;;;;29.00;28.75;;;;;;;;5015463;28;13645;-70
2022/10/27 19:03:57;;;;;;;;;31.00;29.00;;;;;;;;5023241;28;13618;-72
2022/10/27 19:06:23;;;;;;;;;30.33;29.33;;;;;;;;5020050;28;13680;-72
2022/10/27 19:08:48;;;;;;;;;30.00;26.75;;;;;;;;5022146;28;13614;-71
2022/10/27 19:11:14;;;;;;;;;31.00;30.00;;;;;;;;5022428;28;13640;-71
2022/10/27 19:13:40;;;;;;;;;27.25;27.00;;;;;;;;5022739;28;13716;-71
2022/10/27 19:16:08;;;;;;;;;31.00;28.00;;;;;;;;5020871;28;14408;-71
2022/10/27 19:18:34;;;;;;;;;30.40;30.40;;;;;;;;5021473;28;13656;-71
2022/10/27 19:21:00;;;;;;;;;33.00;28.67;;;;;;;;5022356;28;13607;-71
2022/10/27 19:23:30;;;;;;;;;38.00;32.00;;;;;;;;5036195;28;13856;-72
2022/10/27 19:26:05;;;;;;;;;68.20;53.80;;;;;;;;5023147;28;14339;-71
2022/10/27 19:28:31;;;;;;;;;34.50;31.00;;;;;;;;5023006;28;14589;-72
2022/10/27 19:30:57;;;;;;;;;36.50;32.00;;;;;;;;5028870;28;13622;-73
2022/10/27 19:33:23;;;;;;;;;34.67;31.33;;;;;;;;5031250;28;13617;-71
2022/10/27 19:35:48;;;;;;;;;33.50;30.75;;;;;;;;5026549;28;13577;-72
2022/10/27 19:38:14;;;;;;;;;34.00;30.00;;;;;;;;5025138;28;13619;-72
2022/10/27 19:40:40;;;;;;;;;37.00;31.33;;;;;;;;5025722;28;13725;-72
2022/10/27 19:43:05;;;;;;;;;38.50;32.50;;;;;;;;5026418;28;13595;-72
2022/10/27 19:45:30;;;;;;;;;40.25;34.50;;;;;;;;5025928;28;13605;-73
2022/10/27 19:47:56;;;;;;;;;33.00;32.00;;;;;;;;5021866;28;13598;-71
2022/10/27 19:50:21;;;;;;;;;35.67;31.67;;;;;;;;5022700;28;14283;-75
2022/10/27 19:52:46;;;;;;;;;42.33;35.00;;;;;;;;5026551;28;13790;-74
